createdAt,value
2022-12-04T00:00:15.728Z,102265.31
2022-12-04T00:02:47.715Z,102268.38
2022-12-04T00:05:19.838Z,102256.53
2022-12-04T00:07:51.886Z,102262.75
2022-12-04T00:10:23.900Z,102261.69
2022-12-04T00:12:55.907Z,102261.22
2022-12-04T00:15:27.846Z,102268.66
2022-12-04T00:17:59.777Z,102258.59
2022-12-04T00:20:31.734Z,102260.59
2022-12-04T00:23:03.816Z,102257.69
2022-12-04T00:25:40.903Z,102252.78
2022-12-04T00:28:13.347Z,102256.00
2022-12-04T00:30:46.272Z,102259.38
2022-12-04T00:33:18.188Z,102253.19
2022-12-04T00:35:58.908Z,102260.59
2022-12-04T00:38:31.073Z,102251.81
2022-12-04T00:41:03.989Z,102248.03
2022-12-04T00:43:36.002Z,102246.41
2022-12-04T00:46:09.283Z,102240.38
2022-12-04T00:48:42.402Z,102240.88
2022-12-04T00:51:21.911Z,102242.47
2022-12-04T00:53:54.713Z,102237.31
2022-12-04T00:56:28.569Z,102250.28
2022-12-04T00:59:01.791Z,102251.25
2022-12-04T01:01:33.818Z,102245.13
2022-12-04T01:04:06.060Z,102248.84
2022-12-04T01:06:38.021Z,102245.13
2022-12-04T01:09:09.950Z,102252.28
2022-12-04T01:11:41.948Z,102240.84
2022-12-04T01:14:13.913Z,102250.69
2022-12-04T01:16:47.351Z,102248.34
2022-12-04T01:19:19.492Z,102252.22
2022-12-04T01:21:52.101Z,102241.13
2022-12-04T01:24:24.031Z,102237.66
2022-12-04T01:26:56.068Z,102240.91
2022-12-04T01:29:28.126Z,102235.56
2022-12-04T01:32:00.222Z,102232.09
2022-12-04T01:34:32.329Z,102238.78
2022-12-04T01:37:04.433Z,102239.50
2022-12-04T01:39:37.078Z,102238.06
2022-12-04T01:42:14.458Z,102235.75
2022-12-04T01:45:45.238Z,102235.75
2022-12-04T01:48:49.598Z,102231.41
2022-12-04T01:51:31.117Z,102225.53
2022-12-04T01:54:11.014Z,102216.91
2022-12-04T01:56:51.653Z,102222.78
2022-12-04T01:59:28.421Z,102219.03
2022-12-04T02:02:09.463Z,102218.25
2022-12-04T02:04:42.785Z,102219.03
2022-12-04T02:07:14.869Z,102220.81
2022-12-04T02:09:53.827Z,102215.81
2022-12-04T02:12:34.917Z,102216.97
2022-12-04T02:15:24.209Z,102213.34
2022-12-04T02:18:28.475Z,102220.38
2022-12-04T02:21:36.661Z,102217.91
2022-12-04T02:24:36.664Z,102226.78
2022-12-04T02:27:41.781Z,102221.97
2022-12-04T02:30:14.813Z,102216.09
2022-12-04T02:33:05.812Z,102219.56
2022-12-04T02:35:47.316Z,102222.78
2022-12-04T02:38:28.948Z,102221.41
2022-12-04T02:41:03.136Z,102221.34
2022-12-04T02:43:47.704Z,102228.25
2022-12-04T02:46:39.933Z,102223.03
2022-12-04T02:49:21.390Z,102223.25
2022-12-04T02:51:55.383Z,102230.34
2022-12-04T02:54:41.755Z,102226.56
2022-12-04T02:57:20.692Z,102225.03
2022-12-04T02:59:57.061Z,102224.31
2022-12-04T03:02:49.446Z,102217.22
2022-12-04T03:05:30.644Z,102218.03
2022-12-04T03:08:08.698Z,102222.63
2022-12-04T03:10:49.156Z,102216.72
2022-12-04T03:14:00.163Z,102214.88
2022-12-04T03:16:40.411Z,102217.47
2022-12-04T03:19:37.937Z,102219.88
2022-12-04T03:22:15.825Z,102215.44
2022-12-04T03:24:55.873Z,102216.34
2022-12-04T03:27:56.672Z,102216.00
2022-12-04T03:30:38.116Z,102206.19
2022-12-04T03:33:26.549Z,102211.19
2022-12-04T03:36:16.980Z,102201.69
2022-12-04T03:39:11.148Z,102198.06
2022-12-04T03:41:56.926Z,102204.16
2022-12-04T03:44:41.255Z,102193.88
2022-12-04T03:47:28.802Z,102199.66
2022-12-04T03:50:09.834Z,102202.16
2022-12-04T03:53:17.727Z,102197.09
2022-12-04T03:56:06.753Z,102208.59
2022-12-04T03:58:44.565Z,102203.28
2022-12-04T04:01:22.588Z,102201.50
2022-12-04T04:03:58.006Z,102199.00
2022-12-04T04:06:41.253Z,102200.72
2022-12-04T04:09:23.005Z,102195.13
2022-12-04T04:12:05.695Z,102190.47
2022-12-04T04:14:59.485Z,102196.13
2022-12-04T04:18:07.567Z,102199.47
2022-12-04T04:21:03.660Z,102208.91
2022-12-04T04:24:02.427Z,102207.31
2022-12-04T04:26:39.452Z,102203.22
2022-12-04T04:29:12.196Z,102198.13
2022-12-04T04:32:25.287Z,102193.38
2022-12-04T04:35:15.653Z,102195.88
2022-12-04T04:38:09.089Z,102192.41
2022-12-04T04:41:09.301Z,102188.53
2022-12-04T04:44:03.628Z,102197.72
2022-12-04T04:46:40.696Z,102199.25
2022-12-04T04:49:14.899Z,102196.91
2022-12-04T04:51:48.241Z,102200.53
2022-12-04T04:54:21.385Z,102199.88
2022-12-04T04:56:53.353Z,102204.47
2022-12-04T04:59:25.413Z,102204.31
2022-12-04T05:01:57.565Z,102206.50
2022-12-04T05:04:29.657Z,102209.22
2022-12-04T05:07:01.635Z,102197.22
2022-12-04T05:09:38.240Z,102203.66
2022-12-04T05:12:13.092Z,102202.19
2022-12-04T05:14:47.018Z,102213.25
2022-12-04T05:17:19.035Z,102211.25
2022-12-04T05:19:54.845Z,102203.66
2022-12-04T05:22:35.937Z,102208.00
2022-12-04T05:25:08.531Z,102208.75
2022-12-04T05:27:40.592Z,102209.63
2022-12-04T05:30:13.264Z,102213.63
2022-12-04T05:32:45.252Z,102210.59
2022-12-04T05:35:17.442Z,102208.97
2022-12-04T05:37:49.426Z,102204.47
2022-12-04T05:40:21.364Z,102204.38
2022-12-04T05:42:53.299Z,102207.03
2022-12-04T05:45:25.219Z,102208.50
2022-12-04T05:47:57.137Z,102218.31
2022-12-04T05:50:29.070Z,102220.56
2022-12-04T05:53:00.980Z,102202.75
2022-12-04T05:55:32.958Z,102211.13
2022-12-04T05:58:05.048Z,102213.78
2022-12-04T06:00:37.090Z,102213.63
2022-12-04T06:03:09.082Z,102215.41
2022-12-04T06:05:41.097Z,102208.94
2022-12-04T06:08:13.501Z,102206.34
2022-12-04T06:10:45.572Z,102201.03
2022-12-04T06:13:17.613Z,102197.66
2022-12-04T06:15:49.533Z,102195.31
2022-12-04T06:18:21.481Z,102210.13
2022-12-04T06:20:53.459Z,102204.16
2022-12-04T06:23:25.524Z,102200.78
2022-12-04T06:26:02.170Z,102206.75
2022-12-04T06:28:37.722Z,102208.94
2022-12-04T06:31:13.864Z,102209.09
2022-12-04T06:33:46.403Z,102209.56
2022-12-04T06:36:21.226Z,102213.75
2022-12-04T06:38:56.874Z,102221.50
2022-12-04T06:41:29.482Z,102225.19
2022-12-04T06:44:01.588Z,102221.97
2022-12-04T06:46:35.040Z,102224.94
2022-12-04T06:49:07.113Z,102234.06
2022-12-04T06:51:40.858Z,102226.88
2022-12-04T06:54:12.987Z,102242.19
2022-12-04T06:56:45.020Z,102231.00
2022-12-04T06:59:17.297Z,102228.34
2022-12-04T07:01:49.419Z,102233.81
2022-12-04T07:04:21.551Z,102234.38
2022-12-04T07:06:54.677Z,102239.16
2022-12-04T07:09:26.629Z,102243.66
2022-12-04T07:11:58.636Z,102249.88
2022-12-04T07:14:30.682Z,102253.50
2022-12-04T07:17:02.756Z,102251.78
2022-12-04T07:19:34.790Z,102246.97
2022-12-04T07:22:08.990Z,102255.84
2022-12-04T07:24:40.942Z,102249.22
2022-12-04T07:27:12.917Z,102245.66
2022-12-04T07:29:44.823Z,102247.28
2022-12-04T07:32:16.918Z,102242.47
2022-12-04T07:34:48.930Z,102249.22
2022-12-04T07:37:20.866Z,102239.78
2022-12-04T07:39:53.291Z,102245.13
2022-12-04T07:42:25.430Z,102243.34
2022-12-04T07:44:57.420Z,102240.66
2022-12-04T07:47:29.390Z,102236.66
2022-12-04T07:50:01.440Z,102240.66
2022-12-04T07:52:39.831Z,102239.78
2022-12-04T07:55:11.778Z,102253.56
2022-12-04T07:57:43.737Z,102239.31
2022-12-04T08:00:16.415Z,102241.16
2022-12-04T08:02:49.963Z,102247.34
2022-12-04T08:05:22.050Z,102241.47
2022-12-04T08:07:54.484Z,102247.00
2022-12-04T08:10:26.466Z,102244.28
2022-12-04T08:12:58.395Z,102242.72
2022-12-04T08:15:30.320Z,102246.63
2022-12-04T08:18:02.298Z,102241.75
2022-12-04T08:20:34.244Z,102246.13
2022-12-04T08:23:06.205Z,102252.38
2022-12-04T08:25:41.737Z,102250.69
2022-12-04T08:28:13.810Z,102256.50
2022-12-04T08:30:45.790Z,102255.78
2022-12-04T08:33:17.957Z,102259.47
2022-12-04T08:35:49.914Z,102257.94
2022-12-04T08:38:21.873Z,102261.97
2022-12-04T08:40:53.839Z,102267.22
2022-12-04T08:43:25.802Z,102270.84
2022-12-04T08:46:05.008Z,102268.75
2022-12-04T08:48:37.650Z,102269.66
2022-12-04T08:51:17.125Z,102277.63
2022-12-04T08:53:58.740Z,102274.31
2022-12-04T08:56:33.475Z,102275.25
2022-12-04T08:59:06.578Z,102275.41
2022-12-04T09:01:39.463Z,102267.75
2022-12-04T09:04:11.583Z,102259.19
2022-12-04T09:06:43.633Z,102256.09
2022-12-04T09:09:16.857Z,102252.69
2022-12-04T09:11:48.927Z,102251.22
2022-12-04T09:14:25.978Z,102246.19
2022-12-04T09:16:58.126Z,102253.34
2022-12-04T09:19:31.560Z,102249.88
2022-12-04T09:22:03.873Z,102249.00
2022-12-04T09:24:35.805Z,102257.75
2022-12-04T09:27:14.285Z,102261.28
2022-12-04T09:29:46.924Z,102257.97
2022-12-04T09:32:19.593Z,102254.03
2022-12-04T09:34:52.977Z,102252.56
2022-12-04T09:37:25.068Z,102248.41
2022-12-04T09:39:57.199Z,102253.00
2022-12-04T09:42:43.779Z,102245.09
2022-12-04T09:45:22.964Z,102241.47
2022-12-04T09:47:59.384Z,102243.47
2022-12-04T09:50:44.419Z,102233.19
2022-12-04T09:53:47.558Z,102236.88
2022-12-04T09:56:21.646Z,102229.53
2022-12-04T09:59:03.389Z,102226.88
2022-12-04T10:02:37.770Z,102230.47
2022-12-04T10:05:47.257Z,102231.16
2022-12-04T10:08:39.972Z,102231.06
2022-12-04T10:12:23.253Z,102232.78
2022-12-04T10:15:28.526Z,102225.44
2022-12-04T10:18:29.318Z,102229.59
2022-12-04T10:21:45.221Z,102227.81
2022-12-04T10:24:41.079Z,102225.84
2022-12-04T10:27:48.132Z,102220.66
2022-12-04T10:30:26.850Z,102219.25
2022-12-04T10:33:11.771Z,102219.84
2022-12-04T10:35:46.549Z,102218.91
2022-12-04T10:38:49.110Z,102227.81
2022-12-04T10:41:44.397Z,102223.81
2022-12-04T10:44:18.831Z,102211.03
2022-12-04T10:46:57.833Z,102216.63
2022-12-04T10:49:33.475Z,102219.13
2022-12-04T10:52:11.121Z,102210.72
2022-12-04T10:54:55.529Z,102197.84
2022-12-04T10:57:47.291Z,102203.22
2022-12-04T11:00:34.458Z,102205.88
2022-12-04T11:03:23.239Z,102202.41
2022-12-04T11:06:01.370Z,102201.53
2022-12-04T11:08:49.650Z,102206.34
2022-12-04T11:11:30.181Z,102205.28
2022-12-04T11:14:18.396Z,102199.75
2022-12-04T11:17:06.297Z,102198.88
2022-12-04T11:19:38.226Z,102196.22
2022-12-04T11:22:18.250Z,102194.38
2022-12-04T11:24:54.539Z,102193.44
2022-12-04T11:27:32.877Z,102191.19
2022-12-04T11:30:13.923Z,102186.56
2022-12-04T11:32:47.120Z,102190.03
2022-12-04T11:35:25.290Z,102189.16
2022-12-04T11:38:05.018Z,102191.66
2022-12-04T11:40:37.440Z,102191.06
2022-12-04T11:43:17.882Z,102193.00
2022-12-04T11:45:59.723Z,102189.75
2022-12-04T11:48:42.171Z,102186.34
2022-12-04T11:51:53.759Z,102181.81
2022-12-04T11:55:12.538Z,102176.44
2022-12-04T11:58:29.575Z,102166.69
2022-12-04T12:01:16.314Z,102167.25
2022-12-04T12:04:32.796Z,102164.16
2022-12-04T12:07:20.192Z,102163.47
2022-12-04T12:10:19.708Z,102153.19
2022-12-04T12:13:09.680Z,102149.63
2022-12-04T12:16:23.625Z,102149.28
2022-12-04T12:19:59.008Z,102144.94
2022-12-04T12:23:11.853Z,102143.16
2022-12-04T12:26:10.633Z,102138.25
2022-12-04T12:29:14.079Z,102134.84
2022-12-04T12:32:20.073Z,102142.03
2022-12-04T12:34:52.577Z,102138.72
2022-12-04T12:37:47.867Z,102140.59
2022-12-04T12:40:35.122Z,102130.31
2022-12-04T12:43:32.557Z,102135.75
2022-12-04T12:46:30.958Z,102127.16
2022-12-04T12:49:17.776Z,102131.78
2022-12-04T12:52:11.219Z,102144.03
2022-12-04T12:54:57.334Z,102135.44
2022-12-04T12:57:42.548Z,102139.84
2022-12-04T13:00:21.768Z,102134.75
2022-12-04T13:03:18.368Z,102137.97
2022-12-04T13:05:55.933Z,102136.13
2022-12-04T13:08:47.853Z,102128.50
2022-12-04T13:11:25.853Z,102120.84
2022-12-04T13:14:05.205Z,102121.72
2022-12-04T13:16:51.355Z,102120.16
2022-12-04T13:19:26.757Z,102115.88
2022-12-04T13:22:52.708Z,102119.41
2022-12-04T13:25:46.784Z,102108.09
2022-12-04T13:28:41.463Z,102110.75
2022-12-04T13:31:31.329Z,102104.75
2022-12-04T13:34:44.648Z,102111.63
2022-12-04T13:38:07.828Z,102115.81
2022-12-04T13:40:58.432Z,102120.59
2022-12-04T13:43:42.542Z,102116.31
2022-12-04T13:46:39.764Z,102107.16
2022-12-04T13:49:17.819Z,102096.56
2022-12-04T13:51:50.187Z,102108.47
2022-12-04T13:54:28.756Z,102110.25
2022-12-04T13:57:15.946Z,102099.25
2022-12-04T13:59:49.577Z,102104.13
2022-12-04T14:02:35.472Z,102110.50
2022-12-04T14:05:11.589Z,102104.13
2022-12-04T14:08:07.816Z,102107.53
2022-12-04T14:10:40.639Z,102099.91
2022-12-04T14:13:24.105Z,102097.44
2022-12-04T14:16:34.047Z,102102.72
2022-12-04T14:19:07.584Z,102097.63
2022-12-04T14:21:45.973Z,102099.38
2022-12-04T14:24:35.244Z,102107.78
2022-12-04T14:27:42.857Z,102092.97
2022-12-04T14:30:38.306Z,102098.31
2022-12-04T14:33:22.709Z,102090.63
2022-12-04T14:36:29.000Z,102078.38
2022-12-04T14:39:41.765Z,102080.16
2022-12-04T14:42:29.652Z,102082.03
2022-12-04T14:45:05.668Z,102074.84
2022-12-04T14:47:58.078Z,102078.94
2022-12-04T14:50:53.400Z,102083.31
2022-12-04T14:54:21.248Z,102078.38
2022-12-04T14:57:12.262Z,102070.44
2022-12-04T14:59:53.575Z,102070.69
2022-12-04T15:02:35.330Z,102063.03
2022-12-04T15:05:23.040Z,102062.16
2022-12-04T15:08:04.490Z,102069.16
2022-12-04T15:10:56.991Z,102075.41
2022-12-04T15:13:33.457Z,102070.16
2022-12-04T15:16:11.212Z,102068.50
2022-12-04T15:18:54.908Z,102075.47
2022-12-04T15:21:42.432Z,102063.28
2022-12-04T15:24:20.311Z,102069.34
2022-12-04T15:26:53.641Z,102082.28
2022-12-04T15:29:32.072Z,102080.44
2022-12-04T15:32:12.025Z,102078.81
2022-12-04T15:34:51.697Z,102072.03
2022-12-04T15:37:29.023Z,102084.25
2022-12-04T15:40:06.682Z,102086.03
2022-12-04T15:42:38.697Z,102082.72
2022-12-04T15:45:10.544Z,102079.16
2022-12-04T15:47:42.479Z,102084.09
2022-12-04T15:50:17.065Z,102088.41
2022-12-04T15:53:07.450Z,102077.84
2022-12-04T15:55:50.117Z,102078.25
2022-12-04T15:58:31.052Z,102083.38
2022-12-04T16:01:10.227Z,102082.63
2022-12-04T16:03:42.350Z,102087.03
2022-12-04T16:06:33.125Z,102089.63
2022-12-04T16:09:26.084Z,102081.78
2022-12-04T16:12:04.177Z,102093.78
2022-12-04T16:14:36.170Z,102093.09
2022-12-04T16:17:11.149Z,102096.75
2022-12-04T16:19:43.254Z,102097.50
2022-12-04T16:22:20.653Z,102102.88
2022-12-04T16:24:54.022Z,102102.94
2022-12-04T16:27:26.377Z,102107.03
2022-12-04T16:29:58.444Z,102101.16
2022-12-04T16:32:33.309Z,102109.16
2022-12-04T16:35:06.570Z,102094.78
2022-12-04T16:37:38.707Z,102101.81
2022-12-04T16:40:15.004Z,102112.28
2022-12-04T16:42:47.055Z,102116.00
2022-12-04T16:45:32.838Z,102113.47
2022-12-04T16:48:05.252Z,102112.59
2022-12-04T16:50:37.300Z,102115.22
2022-12-04T16:53:18.425Z,102114.41
2022-12-04T16:55:52.617Z,102121.28
2022-12-04T16:58:24.687Z,102120.47
2022-12-04T17:00:57.497Z,102116.22
2022-12-04T17:03:34.359Z,102116.28
2022-12-04T17:06:06.502Z,102109.34
2022-12-04T17:08:38.488Z,102111.06
2022-12-04T17:11:15.836Z,102107.59
2022-12-04T17:13:47.821Z,102104.81
2022-12-04T17:16:20.232Z,102109.28
2022-12-04T17:18:52.569Z,102106.88
2022-12-04T17:21:24.692Z,102109.66
2022-12-04T17:23:56.910Z,102104.47
2022-12-04T17:26:29.249Z,102107.19
2022-12-04T17:29:01.259Z,102114.94
2022-12-04T17:31:33.393Z,102117.72
2022-12-04T17:34:05.511Z,102114.19
2022-12-04T17:36:37.503Z,102124.38
2022-12-04T17:39:11.698Z,102121.59
2022-12-04T17:41:43.708Z,102116.53
2022-12-04T17:44:15.699Z,102124.59
2022-12-04T17:46:47.769Z,102121.31
2022-12-04T17:49:19.779Z,102126.44
2022-12-04T17:51:51.761Z,102122.06
2022-12-04T17:54:23.911Z,102117.06
2022-12-04T17:56:57.929Z,102121.38
2022-12-04T17:59:30.183Z,102117.84
2022-12-04T18:02:02.265Z,102121.19
2022-12-04T18:04:34.194Z,102120.41
2022-12-04T18:07:06.546Z,102124.91
2022-12-04T18:09:38.885Z,102131.91
2022-12-04T18:12:12.502Z,102128.25
2022-12-04T18:14:44.562Z,102124.78
2022-12-04T18:17:17.718Z,102118.72
2022-12-04T18:19:49.691Z,102119.59
2022-12-04T18:22:21.718Z,102130.78
2022-12-04T18:24:54.653Z,102123.94
2022-12-04T18:27:26.695Z,102131.72
2022-12-04T18:30:00.790Z,102125.72
2022-12-04T18:32:32.767Z,102130.06
2022-12-04T18:35:05.176Z,102123.94
2022-12-04T18:37:37.474Z,102115.34
2022-12-04T18:40:10.982Z,102120.66
2022-12-04T18:42:42.918Z,102117.38
2022-12-04T18:45:14.998Z,102116.53
2022-12-04T18:47:48.848Z,102119.91
2022-12-04T18:50:20.822Z,102119.06
2022-12-04T18:52:58.804Z,102110.53
2022-12-04T18:55:37.365Z,102108.06
2022-12-04T18:58:09.339Z,102110.66
2022-12-04T19:00:41.271Z,102118.47
2022-12-04T19:03:13.373Z,102114.13
2022-12-04T19:05:50.498Z,102118.59
2022-12-04T19:08:22.482Z,102115.88
2022-12-04T19:10:54.466Z,102123.78
2022-12-04T19:13:26.571Z,102123.78
2022-12-04T19:15:58.585Z,102125.59
2022-12-04T19:18:31.568Z,102122.28
2022-12-04T19:21:06.612Z,102123.84
2022-12-04T19:23:38.766Z,102126.63
2022-12-04T19:26:10.745Z,102126.38
2022-12-04T19:28:42.782Z,102117.66
2022-12-04T19:31:17.405Z,102121.06
2022-12-04T19:33:49.794Z,102113.34
2022-12-04T19:36:21.846Z,102119.41
2022-12-04T19:38:54.511Z,102116.16
2022-12-04T19:41:30.248Z,102105.69
2022-12-04T19:44:14.664Z,102110.13
2022-12-04T19:46:55.204Z,102111.03
2022-12-04T19:49:27.602Z,102118.19
2022-12-04T19:51:59.585Z,102116.44
2022-12-04T19:54:31.692Z,102115.50
2022-12-04T19:57:03.828Z,102111.97
2022-12-04T19:59:39.536Z,102105.63
2022-12-04T20:02:15.118Z,102112.78
2022-12-04T20:04:47.235Z,102107.56
2022-12-04T20:07:19.312Z,102105.97
2022-12-04T20:09:52.662Z,102105.97
2022-12-04T20:12:24.933Z,102100.72
2022-12-04T20:14:57.533Z,102096.59
2022-12-04T20:17:29.618Z,102099.28
2022-12-04T20:20:01.935Z,102097.09
2022-12-04T20:22:35.022Z,102095.16
2022-12-04T20:25:07.553Z,102104.69
2022-12-04T20:27:39.510Z,102094.38
2022-12-04T20:30:12.007Z,102097.03
2022-12-04T20:32:43.986Z,102092.69
2022-12-04T20:35:16.210Z,102087.72
2022-12-04T20:37:48.174Z,102077.34
2022-12-04T20:40:20.208Z,102080.78
2022-12-04T20:42:52.474Z,102069.47
2022-12-04T20:45:24.568Z,102068.63
2022-12-04T20:47:56.581Z,102065.16
2022-12-04T20:50:28.580Z,102067.81
2022-12-04T20:53:00.596Z,102067.75
2022-12-04T20:55:32.603Z,102069.50
2022-12-04T20:58:04.578Z,102068.75
2022-12-04T21:00:36.616Z,102079.88
2022-12-04T21:03:08.646Z,102070.56
2022-12-04T21:05:40.910Z,102076.69
2022-12-04T21:08:12.901Z,102070.56
2022-12-04T21:10:46.488Z,102069.91
2022-12-04T21:13:37.129Z,102069.19
2022-12-04T21:16:09.586Z,102068.34
2022-12-04T21:18:44.443Z,102072.75
2022-12-04T21:21:17.481Z,102072.00
2022-12-04T21:23:49.441Z,102072.00
2022-12-04T21:26:22.269Z,102070.34
2022-12-04T21:28:54.182Z,102070.38
2022-12-04T21:31:29.066Z,102066.84
2022-12-04T21:34:02.938Z,102068.50
2022-12-04T21:36:35.217Z,102069.50
2022-12-04T21:39:08.637Z,102072.94
2022-12-04T21:41:59.043Z,102076.44
2022-12-04T21:44:30.896Z,102066.97
2022-12-04T21:47:02.974Z,102067.75
2022-12-04T21:49:34.955Z,102072.09
2022-12-04T21:52:06.961Z,102066.03
2022-12-04T21:54:39.016Z,102065.16
2022-12-04T21:57:11.136Z,102073.88
2022-12-04T21:59:43.283Z,102069.44
2022-12-04T22:02:15.724Z,102073.09
2022-12-04T22:04:47.927Z,102068.72
2022-12-04T22:07:19.899Z,102071.44
2022-12-04T22:09:51.938Z,102073.13
2022-12-04T22:12:48.650Z,102070.59
2022-12-04T22:15:16.019Z,102071.59
2022-12-04T22:17:48.000Z,102071.69
2022-12-04T22:20:20.070Z,102077.75
2022-12-04T22:22:52.160Z,102075.94
2022-12-04T22:25:24.138Z,102070.69
2022-12-04T22:27:57.575Z,102067.19
2022-12-04T22:30:29.764Z,102070.59
2022-12-04T22:33:01.805Z,102057.06
2022-12-04T22:35:34.441Z,102057.91
2022-12-04T22:38:06.456Z,102063.03
2022-12-04T22:40:38.814Z,102064.69
2022-12-04T22:43:10.831Z,102060.38
2022-12-04T22:45:43.035Z,102064.09
2022-12-04T22:48:14.979Z,102053.59
2022-12-04T22:51:15.157Z,102055.44
2022-12-04T22:53:50.813Z,102054.47
2022-12-04T22:56:27.329Z,102055.09
2022-12-04T22:59:00.709Z,102052.59
2022-12-04T23:01:34.355Z,102058.72
2022-12-04T23:04:06.420Z,102056.06
2022-12-04T23:06:38.503Z,102055.19
2022-12-04T23:09:16.926Z,102051.81
2022-12-04T23:11:53.786Z,102055.25
2022-12-04T23:14:27.200Z,102060.31
2022-12-04T23:16:59.533Z,102047.41
2022-12-04T23:19:31.697Z,102053.44
2022-12-04T23:22:03.695Z,102045.75
2022-12-04T23:24:38.134Z,102045.13
2022-12-04T23:27:10.144Z,102048.19
2022-12-04T23:29:53.178Z,102054.09
2022-12-04T23:32:25.613Z,102052.38
2022-12-04T23:34:57.675Z,102058.56
2022-12-04T23:37:29.736Z,102055.03
2022-12-04T23:40:01.758Z,102055.88
2022-12-04T23:42:34.087Z,102054.09
2022-12-04T23:45:07.993Z,102059.34
2022-12-04T23:47:39.923Z,102056.59
2022-12-04T23:50:11.896Z,102055.59
2022-12-04T23:52:43.869Z,102051.97
2022-12-04T23:55:16.198Z,102044.25
2022-12-04T23:57:48.253Z,102037.28
